createdAt,value
2022-08-10T00:00:09.198Z,29.60
2022-08-10T00:02:39.841Z,29.55
2022-08-10T00:05:09.345Z,29.57
2022-08-10T00:07:37.991Z,29.56
2022-08-10T00:10:08.475Z,29.56
2022-08-10T00:12:53.581Z,29.57
2022-08-10T00:15:53.142Z,29.55
2022-08-10T00:18:34.553Z,29.52
2022-08-10T00:21:03.082Z,29.51
2022-08-10T00:23:31.590Z,29.49
2022-08-10T00:26:00.555Z,29.48
2022-08-10T00:28:30.439Z,29.46
2022-08-10T00:31:00.706Z,29.47
2022-08-10T00:33:29.256Z,29.44
2022-08-10T00:35:57.731Z,29.43
2022-08-10T00:38:26.184Z,29.41
2022-08-10T00:40:54.697Z,29.40
2022-08-10T00:43:24.155Z,29.38
2022-08-10T00:45:59.514Z,29.37
2022-08-10T00:48:33.053Z,29.34
2022-08-10T00:51:01.972Z,29.31
2022-08-10T00:53:30.707Z,29.29
2022-08-10T00:57:16.970Z,29.28
2022-08-10T00:58:48.680Z,29.25
2022-08-10T01:02:07.678Z,29.22
2022-08-10T01:04:58.001Z,29.21
2022-08-10T01:07:18.804Z,29.18
2022-08-10T01:10:05.342Z,29.17
2022-08-10T01:12:47.418Z,29.17
2022-08-10T01:15:24.363Z,29.12
2022-08-10T01:17:59.345Z,29.12
2022-08-10T01:20:39.754Z,29.09
2022-08-10T01:23:43.164Z,29.05
2022-08-10T01:26:40.534Z,29.02
2022-08-10T01:29:43.500Z,29.00
2022-08-10T01:32:15.304Z,28.98
2022-08-10T01:35:06.962Z,28.95
2022-08-10T01:37:40.581Z,28.92
2022-08-10T01:40:14.215Z,28.88
2022-08-10T01:42:47.531Z,28.82
2022-08-10T01:45:18.659Z,28.79
2022-08-10T01:48:06.299Z,28.76
2022-08-10T01:50:59.142Z,28.75
2022-08-10T01:53:43.615Z,28.72
2022-08-10T01:56:15.550Z,28.71
2022-08-10T01:58:47.904Z,28.70
2022-08-10T02:01:23.714Z,28.70
2022-08-10T02:04:04.045Z,28.67
2022-08-10T02:06:38.410Z,28.65
2022-08-10T02:09:09.303Z,28.62
2022-08-10T02:12:05.150Z,28.63
2022-08-10T02:14:34.513Z,28.60
2022-08-10T02:17:57.294Z,28.59
2022-08-10T02:20:04.158Z,28.57
2022-08-10T02:22:37.616Z,28.56
2022-08-10T02:25:40.799Z,28.53
2022-08-10T02:28:06.704Z,28.50
2022-08-10T02:30:35.832Z,28.48
2022-08-10T02:33:08.101Z,28.48
2022-08-10T02:35:53.540Z,28.46
2022-08-10T02:38:58.325Z,28.44
2022-08-10T02:45:01.238Z,28.42
2022-08-10T02:45:18.214Z,28.40
2022-08-10T02:47:25.707Z,28.38
2022-08-10T02:50:08.527Z,28.35
2022-08-10T02:52:44.346Z,28.32
2022-08-10T02:55:27.097Z,28.30
2022-08-10T02:58:17.046Z,28.28
2022-08-10T03:00:51.325Z,28.25
2022-08-10T03:03:24.019Z,28.21
2022-08-10T03:06:00.523Z,28.18
2022-08-10T03:08:35.946Z,28.17
2022-08-10T03:11:06.518Z,28.14
2022-08-10T03:13:37.013Z,28.14
2022-08-10T03:16:07.703Z,28.12
2022-08-10T03:18:36.516Z,28.09
2022-08-10T03:21:11.712Z,28.09
2022-08-10T03:23:44.536Z,28.07
2022-08-10T03:26:20.338Z,28.05
2022-08-10T03:28:50.394Z,28.02
2022-08-10T03:31:19.658Z,28.02
2022-08-10T03:33:48.993Z,28.00
2022-08-10T03:36:40.601Z,27.98
2022-08-10T03:39:07.736Z,27.96
2022-08-10T03:41:47.651Z,27.95
2022-08-10T03:44:28.927Z,27.93
2022-08-10T03:47:02.231Z,27.90
2022-08-10T03:49:32.495Z,27.88
2022-08-10T03:52:03.250Z,27.86
2022-08-10T03:54:31.997Z,27.84
2022-08-10T03:57:00.839Z,27.81
2022-08-10T03:59:31.411Z,27.79
2022-08-10T04:02:43.270Z,27.78
2022-08-10T04:04:50.322Z,27.74
2022-08-10T04:07:20.271Z,27.69
2022-08-10T04:09:56.034Z,27.68
2022-08-10T04:12:25.423Z,27.65
2022-08-10T04:14:54.149Z,27.64
2022-08-10T04:18:03.658Z,27.63
2022-08-10T04:20:20.448Z,27.60
2022-08-10T04:22:53.943Z,27.59
2022-08-10T04:25:24.384Z,27.57
2022-08-10T04:27:55.226Z,27.56
2022-08-10T04:30:24.255Z,27.55
2022-08-10T04:33:00.647Z,27.54
2022-08-10T04:35:31.299Z,27.52
2022-08-10T04:38:03.584Z,27.55
2022-08-10T04:40:32.342Z,27.54
2022-08-10T04:43:08.967Z,27.55
2022-08-10T04:45:49.963Z,27.54
2022-08-10T04:48:40.490Z,27.53
2022-08-10T04:51:17.092Z,27.51
2022-08-10T04:54:04.481Z,27.51
2022-08-10T04:56:40.367Z,27.50
2022-08-10T04:59:11.840Z,27.50
2022-08-10T05:02:38.565Z,27.51
2022-08-10T05:04:35.507Z,27.50
2022-08-10T05:07:16.417Z,27.52
2022-08-10T05:10:02.826Z,27.53
2022-08-10T05:12:36.827Z,27.53
2022-08-10T05:15:08.641Z,27.51
2022-08-10T05:17:38.071Z,27.51
2022-08-10T05:20:09.247Z,27.50
2022-08-10T05:22:40.438Z,27.48
2022-08-10T05:25:12.879Z,27.47
2022-08-10T05:27:42.291Z,27.46
2022-08-10T05:30:13.701Z,27.43
2022-08-10T05:32:57.571Z,27.43
2022-08-10T05:35:52.389Z,27.42
2022-08-10T05:38:22.033Z,27.41
2022-08-10T05:40:53.019Z,27.42
2022-08-10T05:43:24.101Z,27.42
2022-08-10T05:46:19.567Z,27.42
2022-08-10T05:48:59.513Z,27.42
2022-08-10T05:51:31.144Z,27.42
2022-08-10T05:54:03.971Z,27.42
2022-08-10T05:56:56.176Z,27.43
2022-08-10T06:00:33.083Z,27.42
2022-08-10T06:02:33.081Z,27.43
2022-08-10T06:05:10.731Z,27.43
2022-08-10T06:07:44.188Z,27.42
2022-08-10T06:10:31.097Z,27.40
2022-08-10T06:13:26.728Z,27.39
2022-08-10T06:16:01.978Z,27.36
2022-08-10T06:18:31.394Z,27.36
2022-08-10T06:21:01.718Z,27.38
2022-08-10T06:23:31.970Z,27.40
2022-08-10T06:26:09.814Z,27.42
2022-08-10T06:29:03.357Z,27.44
2022-08-10T06:31:47.931Z,27.47
2022-08-10T06:34:24.084Z,27.47
2022-08-10T06:36:55.356Z,27.46
2022-08-10T06:39:36.404Z,27.47
2022-08-10T06:42:18.047Z,27.47
2022-08-10T06:45:03.221Z,27.48
2022-08-10T06:47:40.197Z,27.47
2022-08-10T06:50:34.490Z,27.48
2022-08-10T06:53:09.079Z,27.50
2022-08-10T06:55:49.505Z,27.49
2022-08-10T06:58:26.654Z,27.51
2022-08-10T07:00:58.155Z,27.49
2022-08-10T07:03:35.509Z,27.49
2022-08-10T07:06:06.873Z,27.50
2022-08-10T07:08:36.763Z,27.53
2022-08-10T07:11:11.461Z,27.56
2022-08-10T07:14:15.664Z,27.57
2022-08-10T07:16:33.090Z,27.63
2022-08-10T07:19:02.898Z,27.64
2022-08-10T07:21:32.600Z,27.62
2022-08-10T07:24:03.293Z,27.62
2022-08-10T07:26:33.584Z,27.63
2022-08-10T07:29:03.665Z,27.66
2022-08-10T07:31:56.480Z,27.70
2022-08-10T07:34:29.043Z,27.75
2022-08-10T07:37:04.997Z,27.79
2022-08-10T07:40:02.305Z,27.80
2022-08-10T07:42:34.331Z,27.83
2022-08-10T07:45:04.214Z,27.86
2022-08-10T07:47:52.758Z,27.89
2022-08-10T07:50:26.559Z,27.92
2022-08-10T07:52:59.415Z,27.96
2022-08-10T07:56:05.233Z,28.00
2022-08-10T07:58:18.832Z,28.05
2022-08-10T08:00:49.679Z,28.11
2022-08-10T08:03:26.798Z,28.16
2022-08-10T08:06:02.512Z,28.20
2022-08-10T08:08:34.718Z,28.25
2022-08-10T08:11:05.531Z,28.30
2022-08-10T08:13:37.279Z,28.36
2022-08-10T08:16:18.398Z,28.42
2022-08-10T08:24:06.200Z,28.52
2022-08-10T08:24:34.689Z,28.57
2022-08-10T08:27:04.891Z,28.63
2022-08-10T08:29:37.164Z,28.68
2022-08-10T08:32:07.850Z,28.72
2022-08-10T08:34:40.506Z,28.75
2022-08-10T08:37:12.022Z,28.80
2022-08-10T08:39:41.605Z,28.85
2022-08-10T08:42:33.864Z,28.88
2022-08-10T08:45:17.063Z,28.93
2022-08-10T08:48:10.313Z,28.96
2022-08-10T08:50:59.597Z,29.03
2022-08-10T08:54:01.220Z,29.12
2022-08-10T08:56:45.739Z,29.22
2022-08-10T08:59:32.746Z,29.30
2022-08-10T09:02:19.514Z,29.38
2022-08-10T09:05:06.063Z,29.45
2022-08-10T09:08:27.836Z,29.50
2022-08-10T09:11:02.688Z,29.58
2022-08-10T09:13:40.822Z,29.66
2022-08-10T09:16:36.449Z,29.74
2022-08-10T09:19:11.832Z,29.84
2022-08-10T09:22:17.118Z,29.91
2022-08-10T09:24:58.972Z,29.98
2022-08-10T09:27:36.036Z,30.06
2022-08-10T09:30:10.540Z,30.15
2022-08-10T09:36:14.251Z,30.22
2022-08-10T09:36:22.447Z,30.25
2022-08-10T09:38:55.636Z,30.27
2022-08-10T09:41:45.910Z,30.31
2022-08-10T09:44:30.157Z,30.40
2022-08-10T09:48:00.988Z,30.46
2022-08-10T09:50:55.696Z,30.54
2022-08-10T09:53:43.248Z,30.63
2022-08-10T09:56:28.815Z,30.71
2022-08-10T09:59:27.210Z,30.79
2022-08-10T10:02:17.054Z,30.88
2022-08-10T10:05:00.499Z,30.95
2022-08-10T10:07:31.171Z,31.04
2022-08-10T10:10:06.173Z,31.11
2022-08-10T10:12:47.743Z,31.16
2022-08-10T10:15:33.020Z,31.23
2022-08-10T10:18:30.664Z,31.25
2022-08-10T10:21:08.600Z,31.27
2022-08-10T10:24:19.944Z,31.30
2022-08-10T10:26:47.142Z,31.36
2022-08-10T10:29:56.466Z,31.45
2022-08-10T10:32:36.610Z,31.53
2022-08-10T10:35:17.598Z,31.62
2022-08-10T10:38:02.458Z,31.67
2022-08-10T10:40:43.153Z,31.72
2022-08-10T10:43:30.714Z,31.78
2022-08-10T10:46:08.393Z,31.82
2022-08-10T10:48:45.872Z,31.90
2022-08-10T10:51:20.233Z,32.00
2022-08-10T10:54:00.862Z,32.07
2022-08-10T10:56:37.787Z,32.12
2022-08-10T10:59:55.230Z,32.17
2022-08-10T11:02:36.549Z,32.17
2022-08-10T11:05:20.560Z,32.21
2022-08-10T11:07:58.739Z,32.27
2022-08-10T11:10:34.773Z,32.34
2022-08-10T11:14:25.004Z,32.39
2022-08-10T11:16:32.986Z,32.43
2022-08-10T11:19:15.117Z,32.48
2022-08-10T11:22:02.747Z,32.51
2022-08-10T11:24:49.314Z,32.55
2022-08-10T11:27:34.130Z,32.59
2022-08-10T11:30:07.342Z,32.63
2022-08-10T11:32:47.306Z,32.66
2022-08-10T11:35:32.810Z,32.72
2022-08-10T11:38:28.423Z,32.78
2022-08-10T11:42:05.843Z,32.84
2022-08-10T11:44:10.737Z,32.89
2022-08-10T11:46:49.716Z,32.96
2022-08-10T11:49:31.812Z,33.03
2022-08-10T11:52:07.814Z,33.09
2022-08-10T11:54:43.622Z,33.17
2022-08-10T11:57:14.023Z,33.21
2022-08-10T11:59:58.170Z,33.27
2022-08-10T12:02:33.275Z,33.32
2022-08-10T12:05:08.932Z,33.34
2022-08-10T12:10:06.915Z,33.38
2022-08-10T12:10:40.672Z,33.37
2022-08-10T12:13:16.931Z,33.40
2022-08-10T12:15:54.670Z,33.42
2022-08-10T12:18:30.728Z,33.42
2022-08-10T12:21:05.032Z,33.47
2022-08-10T12:23:41.851Z,33.53
2022-08-10T12:26:20.729Z,33.58
2022-08-10T12:28:58.701Z,33.63
2022-08-10T12:31:33.417Z,33.72
2022-08-10T12:34:18.182Z,33.77
2022-08-10T12:36:55.257Z,33.78
2022-08-10T12:39:29.419Z,33.84
2022-08-10T12:42:06.543Z,33.88
2022-08-10T12:44:46.223Z,33.90
2022-08-10T12:47:23.812Z,33.94
2022-08-10T12:50:30.772Z,33.99
2022-08-10T12:52:58.503Z,34.02
2022-08-10T12:55:29.121Z,34.08
2022-08-10T12:58:00.878Z,34.12
2022-08-10T13:00:41.543Z,34.10
2022-08-10T13:04:22.490Z,34.15
2022-08-10T13:06:13.202Z,34.18
2022-08-10T13:09:01.461Z,34.21
2022-08-10T13:12:35.624Z,34.19
2022-08-10T13:14:30.109Z,34.23
2022-08-10T13:17:01.699Z,34.29
2022-08-10T13:19:55.691Z,34.32
2022-08-10T13:22:31.633Z,34.31
2022-08-10T13:25:04.698Z,34.32
2022-08-10T13:28:00.482Z,34.32
2022-08-10T13:30:35.702Z,34.31
2022-08-10T13:33:06.660Z,34.33
2022-08-10T13:35:36.247Z,34.39
2022-08-10T13:38:06.582Z,34.46
2022-08-10T13:40:37.401Z,34.51
2022-08-10T13:43:09.275Z,34.51
2022-08-10T13:45:49.703Z,34.52
2022-08-10T13:48:22.497Z,34.52
2022-08-10T13:50:53.396Z,34.53
2022-08-10T13:53:23.661Z,34.57
2022-08-10T13:55:57.052Z,34.62
2022-08-10T13:58:30.808Z,34.64
2022-08-10T14:01:05.585Z,34.73
2022-08-10T14:03:37.616Z,34.79
2022-08-10T14:06:07.873Z,34.83
2022-08-10T14:08:39.793Z,34.86
2022-08-10T14:11:18.231Z,34.90
2022-08-10T14:13:53.652Z,34.89
2022-08-10T14:16:24.899Z,34.89
2022-08-10T14:18:56.081Z,34.90
2022-08-10T14:21:25.039Z,34.93
2022-08-10T14:23:54.177Z,34.96
2022-08-10T14:26:28.141Z,34.99
2022-08-10T14:28:59.842Z,35.01
2022-08-10T14:31:37.551Z,35.03
2022-08-10T14:34:09.523Z,35.00
2022-08-10T14:36:44.109Z,35.01
2022-08-10T14:39:22.496Z,35.02
2022-08-10T14:42:02.647Z,35.05
2022-08-10T14:44:47.522Z,35.09
2022-08-10T14:47:52.154Z,35.15
2022-08-10T14:50:32.352Z,35.18
2022-08-10T14:53:09.528Z,35.19
2022-08-10T14:55:58.777Z,35.20
2022-08-10T14:58:35.966Z,35.18
2022-08-10T15:01:09.399Z,35.15
2022-08-10T15:04:02.573Z,35.15
2022-08-10T15:06:38.621Z,35.13
2022-08-10T15:09:19.271Z,35.14
2022-08-10T15:12:12.288Z,35.14
2022-08-10T15:14:45.679Z,35.13
2022-08-10T15:17:18.072Z,35.14
2022-08-10T15:20:04.362Z,35.13
2022-08-10T15:22:50.194Z,35.12
2022-08-10T15:25:24.779Z,35.13
2022-08-10T15:28:05.176Z,35.15
2022-08-10T15:30:43.054Z,35.16
2022-08-10T15:34:03.432Z,35.16
2022-08-10T15:37:01.863Z,35.14
2022-08-10T15:40:24.762Z,35.13
2022-08-10T15:42:38.650Z,35.12
2022-08-10T15:45:08.869Z,35.08
2022-08-10T15:47:44.923Z,35.07
2022-08-10T15:50:21.036Z,35.04
2022-08-10T15:53:02.745Z,35.01
2022-08-10T15:55:42.587Z,34.99
2022-08-10T15:58:37.508Z,34.96
2022-08-10T16:02:04.495Z,34.93
2022-08-10T16:04:08.235Z,34.90
2022-08-10T16:06:43.791Z,34.90
2022-08-10T16:10:24.210Z,34.86
2022-08-10T16:12:14.700Z,34.80
2022-08-10T16:14:49.110Z,34.78
2022-08-10T16:17:18.782Z,34.78
2022-08-10T16:19:52.390Z,34.77
2022-08-10T16:22:34.375Z,34.77
2022-08-10T16:25:15.644Z,34.76
2022-08-10T16:27:46.382Z,34.75
2022-08-10T16:30:15.980Z,34.73
2022-08-10T16:32:47.646Z,34.72
2022-08-10T16:35:21.257Z,34.73
2022-08-10T16:37:58.606Z,34.71
2022-08-10T16:40:31.640Z,34.69
2022-08-10T16:43:04.264Z,34.67
2022-08-10T16:45:37.313Z,34.67
2022-08-10T16:48:08.360Z,34.65
2022-08-10T16:50:41.798Z,34.64
2022-08-10T16:53:15.486Z,34.62
2022-08-10T16:55:51.193Z,34.58
2022-08-10T16:58:27.429Z,34.58
2022-08-10T17:01:03.998Z,34.59
2022-08-10T17:04:06.210Z,34.61
2022-08-10T17:06:32.642Z,34.58
2022-08-10T17:09:05.369Z,34.57
2022-08-10T17:11:39.097Z,34.55
2022-08-10T17:14:10.635Z,34.52
2022-08-10T17:16:44.669Z,34.51
2022-08-10T17:19:16.975Z,34.49
2022-08-10T17:21:53.061Z,34.49
2022-08-10T17:24:27.472Z,34.48
2022-08-10T17:28:04.170Z,34.45
2022-08-10T17:30:03.928Z,34.43
2022-08-10T17:32:44.077Z,34.41
2022-08-10T17:35:23.034Z,34.37
2022-08-10T17:37:59.466Z,34.35
2022-08-10T17:40:31.222Z,34.33
2022-08-10T17:43:03.378Z,34.32
2022-08-10T17:45:47.701Z,34.29
2022-08-10T17:48:19.980Z,34.28
2022-08-10T17:50:52.897Z,34.27
2022-08-10T17:53:26.610Z,34.25
2022-08-10T17:55:58.345Z,34.25
2022-08-10T17:58:31.233Z,34.24
2022-08-10T18:01:38.587Z,34.23
2022-08-10T18:03:57.457Z,34.20
2022-08-10T18:06:27.086Z,34.19
2022-08-10T18:08:59.276Z,34.17
2022-08-10T18:11:33.626Z,34.16
2022-08-10T18:14:08.398Z,34.17
2022-08-10T18:16:41.605Z,34.11
2022-08-10T18:19:15.688Z,34.13
2022-08-10T18:21:48.589Z,34.09
2022-08-10T18:24:20.274Z,34.09
2022-08-10T18:26:52.861Z,34.07
2022-08-10T18:29:28.966Z,34.07
2022-08-10T18:32:02.373Z,34.05
2022-08-10T18:34:35.145Z,34.04
2022-08-10T18:37:09.346Z,34.03
2022-08-10T18:39:41.944Z,34.01
2022-08-10T18:42:16.281Z,33.98
2022-08-10T18:44:53.589Z,33.96
2022-08-10T18:47:32.926Z,33.94
2022-08-10T18:50:08.015Z,33.90
2022-08-10T18:52:39.686Z,33.88
2022-08-10T18:55:24.561Z,33.87
2022-08-10T18:58:32.888Z,33.83
2022-08-10T19:01:21.474Z,33.83
2022-08-10T19:04:06.731Z,33.81
2022-08-10T19:07:04.225Z,33.78
2022-08-10T19:09:53.290Z,33.78
2022-08-10T19:12:49.567Z,33.75
2022-08-10T19:15:27.824Z,33.73
2022-08-10T19:18:17.950Z,33.70
2022-08-10T19:20:52.465Z,33.68
2022-08-10T19:23:50.511Z,33.63
2022-08-10T19:26:43.707Z,33.57
2022-08-10T19:30:09.001Z,33.54
2022-08-10T19:32:42.362Z,33.49
2022-08-10T19:35:26.442Z,33.47
2022-08-10T19:38:08.134Z,33.46
2022-08-10T19:40:57.986Z,33.43
2022-08-10T19:44:00.952Z,33.41
2022-08-10T19:46:38.892Z,33.38
2022-08-10T19:49:19.965Z,33.35
2022-08-10T19:51:57.749Z,33.33
2022-08-10T19:54:38.223Z,33.29
2022-08-10T19:57:15.103Z,33.27
2022-08-10T20:00:15.952Z,33.26
2022-08-10T20:03:15.399Z,33.19
2022-08-10T20:06:18.471Z,33.15
2022-08-10T20:08:56.683Z,33.14
2022-08-10T20:11:44.371Z,33.12
2022-08-10T20:14:22.706Z,33.10
2022-08-10T20:16:56.680Z,33.08
2022-08-10T20:19:53.170Z,33.08
2022-08-10T20:22:30.397Z,33.04
2022-08-10T20:25:14.251Z,33.03
2022-08-10T20:28:00.615Z,33.02
2022-08-10T20:30:34.058Z,33.00
2022-08-10T20:33:10.323Z,32.99
2022-08-10T20:35:49.894Z,32.95
2022-08-10T20:38:27.356Z,32.94
2022-08-10T20:41:09.849Z,32.92
2022-08-10T20:43:52.047Z,32.90
2022-08-10T20:46:28.590Z,32.87
2022-08-10T20:49:02.407Z,32.86
2022-08-10T20:51:57.876Z,32.83
2022-08-10T20:54:34.509Z,32.79
2022-08-10T20:57:55.847Z,32.76
2022-08-10T21:00:23.629Z,32.74
2022-08-10T21:03:07.648Z,32.71
2022-08-10T21:05:58.906Z,32.69
2022-08-10T21:08:48.117Z,32.67
2022-08-10T21:11:29.838Z,32.66
2022-08-10T21:14:24.769Z,32.63
2022-08-10T21:17:19.144Z,32.59
2022-08-10T21:20:09.338Z,32.55
2022-08-10T21:22:44.980Z,32.54
2022-08-10T21:25:20.322Z,32.53
2022-08-10T21:28:29.917Z,32.48
2022-08-10T21:31:28.497Z,32.45
2022-08-10T21:34:13.079Z,32.44
2022-08-10T21:36:50.967Z,32.42
2022-08-10T21:39:42.621Z,32.40
2022-08-10T21:42:59.958Z,32.36
2022-08-10T21:46:04.203Z,32.30
2022-08-10T21:49:04.940Z,32.26
2022-08-10T21:52:01.435Z,32.21
2022-08-10T21:55:00.532Z,32.17
2022-08-10T21:58:00.965Z,32.11
2022-08-10T22:03:57.624Z,32.05
2022-08-10T22:06:52.110Z,32.03
2022-08-10T22:09:47.950Z,31.99
2022-08-10T22:12:46.844Z,31.97
2022-08-10T22:16:10.287Z,31.93
2022-08-10T22:22:05.547Z,31.87
2022-08-10T22:25:16.716Z,31.85
2022-08-10T22:28:12.487Z,31.83
2022-08-10T22:31:27.266Z,31.90
2022-08-10T22:31:28.388Z,32.07
2022-08-10T22:34:37.941Z,31.77
2022-08-10T22:37:42.810Z,31.74
2022-08-10T22:40:35.844Z,31.74
2022-08-10T22:43:35.900Z,31.71
2022-08-10T22:46:32.893Z,31.70
2022-08-10T22:49:00.429Z,31.67
2022-08-10T22:51:41.508Z,31.68
2022-08-10T22:54:38.893Z,31.66
2022-08-10T22:57:32.137Z,31.64
2022-08-10T23:00:10.992Z,31.60
2022-08-10T23:02:40.605Z,31.58
2022-08-10T23:05:14.538Z,31.58
2022-08-10T23:07:52.785Z,31.57
2022-08-10T23:10:27.408Z,31.55
2022-08-10T23:13:00.958Z,31.55
2022-08-10T23:15:52.285Z,31.54
2022-08-10T23:18:51.776Z,31.52
2022-08-10T23:21:22.814Z,31.50
2022-08-10T23:23:56.642Z,31.50
2022-08-10T23:26:28.768Z,31.50
2022-08-10T23:29:12.056Z,31.47
2022-08-10T23:31:59.169Z,31.44
2022-08-10T23:34:34.588Z,31.43
2022-08-10T23:37:05.511Z,31.41
2022-08-10T23:39:38.425Z,31.39
2022-08-10T23:42:11.754Z,31.38
2022-08-10T23:44:45.920Z,31.34
2022-08-10T23:47:17.769Z,31.32
2022-08-10T23:49:47.735Z,31.30
2022-08-10T23:52:21.442Z,31.28
2022-08-10T23:54:55.573Z,31.27
2022-08-10T23:57:28.387Z,31.25
